Time;durP1;ratioP1;P1;durP2;ratioP2;P2;SDS_P1;SDS_P2;PMS_P1;PMS_P2;Temp;Humidity;BMP_temperature;BMP_pressure;BME280_temperature;BME280_humidity;BME280_pressure;Samples;Min_cycle;Max_cycle;Signal;HPM_P1;HPM_P2
2022/11/07 21:35:50;;;;;;;0.00;0.00;;;;;;;16.91;67.55;100964.25;2117093;27;21120;-68
2022/11/07 21:36:53;;;;;;;0.00;0.00;;;;;;;16.98;68.68;100958.88;2110175;28;20047;-65
2022/11/07 21:37:55;;;;;;;0.00;0.00;;;;;;;17.00;69.83;100954.59;2075508;27;20067;-65
2022/11/07 21:38:59;;;;;;;0.00;0.00;;;;;;;17.01;70.70;100947.19;1906041;28;3600669;-65
2022/11/07 21:40:01;;;;;;;0.00;0.00;;;;;;;17.02;71.39;100937.84;2019018;28;20052;-65
2022/11/07 21:41:05;;;;;;;0.00;0.00;;;;;;;17.02;72.32;100937.84;2083020;28;20060;-65
2022/11/07 21:42:08;;;;;;;0.00;0.00;;;;;;;17.03;72.18;100944.88;2081646;28;20057;-65
2022/11/07 21:43:11;;;;;;;0.00;0.00;;;;;;;17.02;72.72;100946.03;2075778;28;20544;-65
2022/11/07 21:44:13;;;;;;;0.00;0.00;;;;;;;17.03;72.77;100934.72;2078030;28;20053;-65
2022/11/07 21:45:15;;;;;;;0.00;0.00;;;;;;;17.04;73.12;100928.13;2075831;28;20052;-65
2022/11/07 21:46:20;;;;;;;0.00;0.00;;;;;;;17.06;73.27;100933.19;2077710;28;20060;-66
2022/11/07 21:47:23;;;;;;;0.00;0.00;;;;;;;17.06;73.07;100935.94;2049841;28;20041;-66
2022/11/07 21:48:24;;;;;;;0.00;0.00;;;;;;;17.08;73.35;100928.13;2074665;28;20061;-66
2022/11/07 21:49:27;;;;;;;0.00;0.00;;;;;;;17.08;73.39;100925.41;2077321;28;20061;-65
2022/11/07 21:50:30;;;;;;;0.00;0.00;;;;;;;17.08;73.60;100931.66;2083967;28;20056;-65
2022/11/07 21:51:50;;;;;;;0.00;0.00;;;;;;;17.09;73.44;100926.97;2080698;28;20088;-65
2022/11/07 21:52:51;;;;;;;0.00;0.00;;;;;;;17.09;73.78;100926.97;2080213;28;20058;-65
2022/11/07 21:53:55;;;;;;;0.00;0.00;;;;;;;17.12;73.54;100926.22;2081998;28;20064;-66
2022/11/07 21:54:58;;;;;;;0.00;0.00;;;;;;;17.13;73.52;100935.94;2079579;28;20054;-65
2022/11/07 21:55:59;;;;;;;0.00;0.00;;;;;;;17.13;73.50;100928.56;2080535;28;20075;-66
2022/11/07 21:57:02;;;;;;;0.00;0.00;;;;;;;17.15;73.54;100930.91;2081627;28;20561;-65
2022/11/07 21:58:04;;;;;;;0.00;0.00;;;;;;;17.16;73.55;100937.91;2081888;28;20061;-65
2022/11/07 21:59:10;;;;;;;0.00;0.00;;;;;;;17.18;73.57;100932.88;2079833;28;20057;-65
2022/11/07 22:00:13;;;;;;;0.00;0.00;;;;;;;17.19;73.69;100931.69;2081736;28;20068;-65
2022/11/07 22:01:15;;;;;;;0.00;0.00;;;;;;;17.19;73.59;100931.69;2084163;28;20424;-65
2022/11/07 22:02:17;;;;;;;0.00;0.00;;;;;;;17.20;73.46;100930.53;2078697;28;20124;-66
2022/11/07 22:03:20;;;;;;;0.00;0.00;;;;;;;17.20;73.27;100927.81;2080736;28;20057;-66
2022/11/07 22:04:43;;;;;;;0.00;0.00;;;;;;;17.19;73.13;100923.50;2080742;28;20207;-65
2022/11/07 22:05:45;;;;;;;0.00;0.00;;;;;;;17.21;73.45;100934.81;2080553;28;20045;-66
2022/11/07 22:06:50;;;;;;;0.00;0.00;;;;;;;17.23;73.11;100936.03;2080998;28;20477;-65
2022/11/07 22:07:52;;;;;;;0.00;0.00;;;;;;;17.23;73.14;100927.03;2078123;28;20061;-65
2022/11/07 22:08:54;;;;;;;0.00;0.00;;;;;;;17.25;73.09;100930.19;2084126;28;20084;-66
2022/11/07 22:09:56;;;;;;;0.00;0.00;;;;;;;17.25;73.14;100928.22;2079513;28;20183;-66
2022/11/07 22:10:59;;;;;;;0.00;0.00;;;;;;;17.26;73.10;100929.00;2082518;28;20057;-65
2022/11/07 22:12:02;;;;;;;0.00;0.00;;;;;;;17.23;72.68;100925.13;2081308;28;20066;-65
2022/11/07 22:13:04;;;;;;;0.00;0.00;;;;;;;17.27;73.04;100928.63;2078331;28;20053;-65
2022/11/07 22:14:07;;;;;;;0.00;0.00;;;;;;;17.28;73.09;100930.19;2080512;28;20148;-65
2022/11/07 22:15:09;;;;;;;0.00;0.00;;;;;;;17.28;72.73;100926.69;2080122;28;20058;-65
2022/11/07 22:16:13;;;;;;;0.00;0.00;;;;;;;17.30;72.94;100927.09;2080474;28;20075;-65
2022/11/07 22:17:16;;;;;;;0.00;0.00;;;;;;;17.30;72.84;100932.56;2080300;28;20056;-65
2022/11/07 22:18:18;;;;;;;0.00;0.00;;;;;;;17.30;72.89;100927.84;2082205;28;20041;-66
2022/11/07 22:19:21;;;;;;;0.00;0.00;;;;;;;17.31;72.68;100928.66;2078639;28;20053;-66
2022/11/07 22:20:22;;;;;;;0.00;0.00;;;;;;;17.31;72.83;100936.84;2080796;28;20061;-65
2022/11/07 22:21:25;;;;;;;0.00;0.00;;;;;;;17.33;72.87;100938.00;2084703;28;20057;-65
2022/11/07 22:22:29;;;;;;;0.00;0.00;;;;;;;17.33;72.53;100926.31;2080705;28;20053;-65
2022/11/07 22:23:32;;;;;;;0.00;0.00;;;;;;;17.33;72.76;100923.59;2080122;28;20524;-65
2022/11/07 22:24:35;;;;;;;0.00;0.00;;;;;;;17.32;72.56;100930.19;2082692;28;20085;-65
2022/11/07 22:25:36;;;;;;;0.00;0.00;;;;;;;17.33;72.65;100932.53;2081907;28;20052;-65
2022/11/07 22:26:39;;;;;;;0.00;0.00;;;;;;;17.35;72.64;100937.63;2082627;28;20049;-66
2022/11/07 22:27:42;;;;;;;0.00;0.00;;;;;;;17.35;72.50;100940.34;2079366;28;20046;-66
2022/11/07 22:28:44;;;;;;;0.00;0.00;;;;;;;17.35;72.56;100940.34;2082926;28;20093;-65
2022/11/07 22:29:49;;;;;;;0.00;0.00;;;;;;;17.36;72.76;100936.47;2081276;28;20054;-65
2022/11/07 22:30:50;;;;;;;0.00;0.00;;;;;;;17.33;72.65;100931.78;2078344;28;20085;-66
2022/11/07 22:31:53;;;;;;;0.00;0.00;;;;;;;17.37;72.59;100932.56;2080133;28;20045;-65
2022/11/07 22:32:55;;;;;;;0.00;0.00;;;;;;;17.37;72.58;100938.03;2074349;28;20083;-66
2022/11/07 22:34:00;;;;;;;0.00;0.00;;;;;;;17.38;72.55;100934.13;2076276;28;20061;-65
2022/11/07 22:35:02;;;;;;;0.00;0.00;;;;;;;17.37;72.53;100932.56;2078579;28;20061;-66
2022/11/07 22:36:11;;;;;;;0.00;0.00;;;;;;;17.36;72.59;100923.59;2077899;28;20134;-65
2022/11/07 22:37:14;;;;;;;0.00;0.00;;;;;;;17.38;72.50;100934.13;2078196;28;20524;-65
2022/11/07 22:38:17;;;;;;;0.00;0.00;;;;;;;17.37;72.42;100936.09;2079545;28;20130;-65
2022/11/07 22:39:19;;;;;;;0.00;0.00;;;;;;;17.37;72.16;100932.56;2078221;28;20060;-66
2022/11/07 22:40:21;;;;;;;0.00;0.00;;;;;;;17.37;72.33;100927.91;2083617;28;20057;-65
2022/11/07 22:41:26;;;;;;;0.00;0.00;;;;;;;17.38;72.33;100923.19;2082682;28;20081;-65
2022/11/07 22:42:27;;;;;;;0.00;0.00;;;;;;;17.38;72.48;100925.94;2081952;28;20053;-65
2022/11/07 22:43:30;;;;;;;0.00;0.00;;;;;;;17.39;72.29;100922.06;2087257;28;20051;-66
2022/11/07 22:44:33;;;;;;;0.00;0.00;;;;;;;17.38;72.34;100920.47;2086476;28;20064;-65
2022/11/07 22:45:36;;;;;;;0.00;0.00;;;;;;;17.39;72.51;100911.13;2085448;28;20061;-66
2022/11/07 22:46:39;;;;;;;0.00;0.00;;;;;;;17.38;72.29;100913.06;2082331;28;20541;-66
2022/11/07 22:47:41;;;;;;;0.00;0.00;;;;;;;17.39;72.16;100924.78;2078078;28;20049;-65
2022/11/07 22:48:45;;;;;;;0.00;0.00;;;;;;;17.39;72.24;100914.66;2072156;28;20085;-65
2022/11/07 22:49:46;;;;;;;0.00;0.00;;;;;;;17.38;72.28;100913.06;2072736;28;20523;-65
2022/11/07 22:50:49;;;;;;;0.00;0.00;;;;;;;17.38;72.24;100917.75;2076778;28;20632;-65
2022/11/07 22:51:51;;;;;;;0.00;0.00;;;;;;;17.39;72.23;100919.31;2072706;28;20052;-66
2022/11/07 22:52:54;;;;;;;0.00;0.00;;;;;;;17.38;72.18;100920.47;2073755;28;20057;-65
2022/11/07 22:53:59;;;;;;;0.00;0.00;;;;;;;17.38;72.16;100913.06;2072346;28;20438;-65
2022/11/07 22:55:01;;;;;;;0.00;0.00;;;;;;;17.38;72.07;100918.53;2079174;28;20062;-65
2022/11/07 22:56:07;;;;;;;0.00;0.00;;;;;;;17.38;72.11;100915.81;2076832;28;20632;-65
2022/11/07 22:57:10;;;;;;;0.00;0.00;;;;;;;17.38;72.21;100925.94;2077953;28;20076;-65
2022/11/07 22:58:18;;;;;;;0.00;0.00;;;;;;;17.38;72.05;100928.66;2074462;28;20056;-65
2022/11/07 22:59:21;;;;;;;0.00;0.00;;;;;;;17.38;72.31;100920.47;2079213;28;20128;-65
2022/11/07 23:00:23;;;;;;;0.00;0.00;;;;;;;17.39;72.14;100922.06;2077871;28;20084;-65
2022/11/07 23:01:27;;;;;;;0.00;0.00;;;;;;;17.37;71.92;100922.44;2072438;28;20563;-65
2022/11/07 23:02:30;;;;;;;0.00;0.00;;;;;;;17.39;72.07;100916.59;2076162;28;20103;-65
2022/11/07 23:03:33;;;;;;;0.00;0.00;;;;;;;17.38;71.82;100913.06;2072019;28;20421;-65
2022/11/07 23:04:35;;;;;;;0.00;0.00;;;;;;;17.39;72.08;100924.78;2072206;28;20089;-65
2022/11/07 23:05:37;;;;;;;0.00;0.00;;;;;;;17.39;71.91;100920.13;2075234;28;20057;-65
2022/11/07 23:06:40;;;;;;;0.00;0.00;;;;;;;17.39;71.73;100925.56;2077028;28;20434;-65
2022/11/07 23:07:42;;;;;;;0.00;0.00;;;;;;;17.40;71.91;100926.34;2078740;28;20053;-65
2022/11/07 23:08:44;;;;;;;0.00;0.00;;;;;;;17.40;71.94;100920.88;2075605;28;20060;-65
2022/11/07 23:09:48;;;;;;;0.00;0.00;;;;;;;17.41;72.08;100919.72;2077361;28;20088;-64
2022/11/07 23:10:57;;;;;;;0.00;0.00;;;;;;;17.38;71.86;100923.19;2078054;28;20493;-65
2022/11/07 23:12:20;;;;;;;0.00;0.00;;;;;;;17.35;72.11;100918.50;2077989;28;20072;-65
2022/11/07 23:13:22;;;;;;;0.00;0.00;;;;;;;17.37;72.07;100921.66;2077384;28;20089;-65
2022/11/07 23:14:25;;;;;;;0.00;0.00;;;;;;;17.38;71.99;100920.47;2075381;28;20551;-65
2022/11/07 23:15:29;;;;;;;0.00;0.00;;;;;;;17.38;72.07;100923.19;2078989;28;20172;-65
2022/11/07 23:16:33;;;;;;;0.00;0.00;;;;;;;17.39;71.80;100922.06;2074521;28;20057;-65
2022/11/07 23:17:36;;;;;;;0.00;0.00;;;;;;;17.38;72.17;100920.47;2080159;28;20061;-65
2022/11/07 23:18:39;;;;;;;0.00;0.00;;;;;;;17.37;72.05;100925.16;2081917;28;20053;-65
2022/11/07 23:19:41;;;;;;;0.00;0.00;;;;;;;17.37;71.99;100921.66;2076720;28;20108;-65
2022/11/07 23:22:04;;;;;;;0.00;0.00;;;;;;;17.34;71.95;100919.69;2074668;28;20061;-65
2022/11/07 23:23:06;;;;;;;0.00;0.00;;;;;;;17.36;71.81;100920.84;2072337;28;20115;-65
2022/11/07 23:24:09;;;;;;;0.00;0.00;;;;;;;17.37;71.97;100927.09;2076915;28;20061;-65
2022/11/07 23:25:12;;;;;;;0.00;0.00;;;;;;;17.38;71.94;100925.94;2078585;28;20064;-65
2022/11/07 23:26:17;;;;;;;0.00;0.00;;;;;;;17.37;71.93;100916.19;2079213;28;20072;-65
2022/11/07 23:27:20;;;;;;;0.00;0.00;;;;;;;17.36;71.85;100920.09;2078087;28;20076;-65
2022/11/07 23:28:21;;;;;;;0.00;0.00;;;;;;;17.37;72.05;100927.91;2077284;28;20054;-65
2022/11/07 23:29:24;;;;;;;0.00;0.00;;;;;;;17.36;71.68;100922.81;2078858;28;20064;-65
2022/11/07 23:30:26;;;;;;;0.00;0.00;;;;;;;17.35;71.68;100926.69;2072445;28;20096;-65
2022/11/07 23:31:29;;;;;;;0.00;0.00;;;;;;;17.38;71.87;100931.38;2074290;28;20053;-65
2022/11/07 23:32:31;;;;;;;0.00;0.00;;;;;;;17.38;72.05;100925.94;2072446;28;20053;-65
2022/11/07 23:33:35;;;;;;;0.00;0.00;;;;;;;17.38;71.86;100925.94;2077792;28;20060;-65
2022/11/07 23:34:38;;;;;;;0.00;0.00;;;;;;;17.36;71.75;100922.81;2077147;28;20061;-65
2022/11/07 23:35:40;;;;;;;0.00;0.00;;;;;;;17.37;71.97;100921.66;2079437;28;20432;-65
2022/11/07 23:36:43;;;;;;;0.00;0.00;;;;;;;17.37;71.79;100927.91;2076271;28;20092;-65
2022/11/07 23:37:47;;;;;;;0.00;0.00;;;;;;;17.37;71.74;100916.19;2073638;28;20088;-65
2022/11/07 23:38:50;;;;;;;0.00;0.00;;;;;;;17.38;71.89;100925.94;2079708;28;20072;-65
2022/11/07 23:39:52;;;;;;;0.00;0.00;;;;;;;17.36;71.84;100920.84;2078516;28;20083;-65
2022/11/07 23:40:56;;;;;;;0.00;0.00;;;;;;;17.38;71.78;100915.00;2079363;28;20125;-65
2022/11/07 23:41:59;;;;;;;0.00;0.00;;;;;;;17.36;71.68;100920.09;2077804;28;20057;-65
2022/11/07 23:43:00;;;;;;;0.00;0.00;;;;;;;17.36;71.99;100923.59;2074507;28;20552;-65
2022/11/07 23:44:04;;;;;;;0.00;0.00;;;;;;;17.37;71.75;100922.44;2072193;28;20058;-65
2022/11/07 23:52:03;;;;;;;;;;;;;;;17.05;72.06;100905.13;2072733;28;20057;-65
2022/11/07 23:55:35;;;;;;;0.00;0.00;;;;;;;17.22;72.11;100909.88;2077052;28;20286;-64
2022/11/07 23:55:49;;;;;;;0.00;0.00;;;;;;;17.25;72.01;100900.16;2075544;28;20424;-65
2022/11/07 23:56:53;;;;;;;0.00;0.00;;;;;;;17.27;71.88;100914.19;2072093;28;20054;-64
